Terminal Aerodrome Forecast
Issued by NWS

Home | Current Version | Previous Version | Text Only | Print | Product List | Glossary On
Versions: 1 2 3 4 5 6 7 8 9 10 11 12 13 14 15 16
898
FTUS44 KTSA 211731
TAFRVS
TAF
KRVS 211731Z 2118/2218 19014G21KT P6SM SCT025 SCT035 BKN250
      TEMPO 2118/2121 BKN025
     FM212100 18012G20KT P6SM VCTS BKN035CB BKN250
     FM220400 22011G17KT P6SM SCT100
     FM221400 26015G22KT P6SM BKN020=

USA.gov is the U.S. government's official web portal to all federal, state and local government web resources and services.